createdAt,value
2018-05-02T00:02:09.019Z,1.60
2018-05-02T00:04:36.707Z,1.50
2018-05-02T00:07:04.718Z,2.53
2018-05-02T00:09:32.505Z,1.43
2018-05-02T00:12:00.102Z,1.37
2018-05-02T00:14:27.687Z,1.60
2018-05-02T00:16:55.292Z,1.50
2018-05-02T00:19:22.976Z,1.17
2018-05-02T00:21:50.815Z,1.00
2018-05-02T00:24:18.618Z,1.20
2018-05-02T00:26:46.373Z,1.10
2018-05-02T00:29:14.072Z,1.57
2018-05-02T00:31:41.647Z,1.93
2018-05-02T00:34:09.315Z,1.73
2018-05-02T00:36:36.843Z,1.83
2018-05-02T00:39:04.495Z,1.90
2018-05-02T00:41:32.094Z,2.03
2018-05-02T00:43:59.640Z,1.27
2018-05-02T00:46:27.329Z,1.90
2018-05-02T00:49:07.064Z,1.50
2018-05-02T00:51:34.981Z,1.67
2018-05-02T00:54:02.623Z,1.80
2018-05-02T00:56:30.470Z,2.20
2018-05-02T00:58:58.391Z,1.50
2018-05-02T01:01:26.126Z,1.27
2018-05-02T01:03:53.767Z,2.20
2018-05-02T01:06:21.333Z,1.80
2018-05-02T01:08:49.211Z,2.23
2018-05-02T01:11:16.871Z,1.60
2018-05-02T01:13:44.484Z,2.00
2018-05-02T01:16:12.091Z,2.00
2018-05-02T01:18:39.737Z,2.00
2018-05-02T01:21:07.347Z,2.00
2018-05-02T01:23:35.028Z,1.60
2018-05-02T01:26:02.624Z,2.20
2018-05-02T01:28:30.192Z,2.07
2018-05-02T01:30:57.747Z,2.73
2018-05-02T01:33:25.436Z,2.13
2018-05-02T01:35:53.254Z,2.67
2018-05-02T01:38:20.829Z,2.27
2018-05-02T01:40:48.380Z,2.70
2018-05-02T01:43:16.135Z,2.67
2018-05-02T01:45:43.674Z,2.50
2018-05-02T01:48:11.451Z,2.67
2018-05-02T01:50:39.022Z,2.90
2018-05-02T01:53:06.737Z,2.67
2018-05-02T01:55:34.430Z,3.10
2018-05-02T01:58:01.994Z,3.00
2018-05-02T02:00:29.787Z,3.07
2018-05-02T02:02:57.454Z,2.17
2018-05-02T02:05:25.280Z,3.07
2018-05-02T02:07:52.862Z,3.10
2018-05-02T02:10:20.698Z,3.63
2018-05-02T02:12:48.279Z,3.50
2018-05-02T02:15:15.822Z,2.83
2018-05-02T02:17:43.431Z,2.97
2018-05-02T02:20:10.976Z,3.30
2018-05-02T02:22:38.660Z,3.80
2018-05-02T02:25:06.376Z,3.77
2018-05-02T02:27:33.939Z,4.10
2018-05-02T02:30:01.722Z,4.03
2018-05-02T02:32:29.487Z,3.83
2018-05-02T02:34:57.029Z,3.50
2018-05-02T02:37:24.586Z,3.87
2018-05-02T02:39:52.196Z,3.70
2018-05-02T02:42:19.749Z,3.97
2018-05-02T02:44:48.293Z,3.73
2018-05-02T02:47:16.010Z,4.00
2018-05-02T02:49:43.583Z,4.83
2018-05-02T02:52:11.275Z,4.70
2018-05-02T02:54:39.115Z,3.97
2018-05-02T02:57:06.852Z,4.30
2018-05-02T02:59:34.434Z,4.57
2018-05-02T03:02:03.499Z,3.90
2018-05-02T03:04:31.142Z,4.33
2018-05-02T03:06:58.774Z,5.13
2018-05-02T03:09:26.419Z,4.40
2018-05-02T03:11:58.843Z,5.03
2018-05-02T03:14:26.465Z,5.17
2018-05-02T03:16:54.182Z,4.40
2018-05-02T03:19:22.262Z,4.93
2018-05-02T03:21:50.120Z,4.80
2018-05-02T03:24:17.716Z,5.43
2018-05-02T03:26:45.289Z,4.83
2018-05-02T03:29:12.936Z,5.83
2018-05-02T03:31:40.481Z,5.60
2018-05-02T03:34:08.231Z,5.80
2018-05-02T03:36:35.927Z,5.60
2018-05-02T03:39:03.596Z,5.63
2018-05-02T03:41:31.179Z,5.20
2018-05-02T03:43:58.730Z,5.50
2018-05-02T03:46:26.528Z,6.97
2018-05-02T03:48:54.492Z,5.77
2018-05-02T03:51:22.145Z,6.07
2018-05-02T03:53:49.717Z,6.27
2018-05-02T03:56:17.305Z,6.20
2018-05-02T03:58:45.096Z,6.00
2018-05-02T04:01:24.830Z,5.90
2018-05-02T04:04:04.298Z,6.47
2018-05-02T04:09:39.234Z,7.30
2018-05-02T04:12:06.859Z,6.67
2018-05-02T04:14:34.463Z,6.53
2018-05-02T04:17:02.112Z,7.60
2018-05-02T04:19:29.790Z,7.77
2018-05-02T04:21:57.633Z,7.83
2018-05-02T04:24:25.695Z,7.13
2018-05-02T04:26:53.561Z,7.33
2018-05-02T04:29:21.162Z,6.40
2018-05-02T04:31:49.209Z,7.90
2018-05-02T04:34:16.764Z,7.90
2018-05-02T04:36:44.466Z,7.07
2018-05-02T04:39:12.260Z,6.57
2018-05-02T04:41:39.884Z,8.10
2018-05-02T04:44:07.702Z,7.23
2018-05-02T04:46:35.409Z,7.07
2018-05-02T04:49:03.080Z,7.70
2018-05-02T04:51:30.672Z,7.83
2018-05-02T04:53:58.507Z,7.23
2018-05-02T04:56:26.564Z,7.40
2018-05-02T04:58:54.420Z,8.40
2018-05-02T05:01:21.989Z,8.53
2018-05-02T05:03:49.638Z,7.60
2018-05-02T05:06:17.188Z,7.97
2018-05-02T05:08:45.288Z,8.77
2018-05-02T05:11:12.923Z,8.10
2018-05-02T05:13:40.712Z,8.40
2018-05-02T05:16:08.360Z,9.37
2018-05-02T05:18:36.194Z,8.50
2018-05-02T05:21:03.835Z,9.70
2018-05-02T05:23:31.472Z,9.67
2018-05-02T05:25:59.262Z,9.60
2018-05-02T05:28:27.070Z,8.93
2018-05-02T05:30:54.790Z,8.70
2018-05-02T05:33:22.383Z,9.57
2018-05-02T05:35:50.110Z,9.50
2018-05-02T05:38:17.946Z,8.90
2018-05-02T05:40:45.736Z,8.57
2018-05-02T05:43:13.609Z,9.20
2018-05-02T05:45:41.195Z,8.20
2018-05-02T05:48:09.278Z,9.33
2018-05-02T05:50:36.913Z,9.87
2018-05-02T05:53:04.561Z,10.70
2018-05-02T05:55:32.269Z,9.00
2018-05-02T05:57:59.943Z,10.40
2018-05-02T06:00:27.518Z,9.50
2018-05-02T06:02:55.347Z,10.10
2018-05-02T06:05:24.224Z,9.30
2018-05-02T06:07:51.809Z,9.50
2018-05-02T06:10:19.889Z,11.10
2018-05-02T06:12:47.524Z,10.80
2018-05-02T06:15:15.078Z,8.90
2018-05-02T06:17:42.897Z,9.50
2018-05-02T06:20:10.529Z,9.37
2018-05-02T06:22:38.517Z,10.17
2018-05-02T06:25:06.099Z,9.30
2018-05-02T06:27:33.697Z,9.57
2018-05-02T06:30:01.339Z,9.13
2018-05-02T06:32:28.906Z,8.43
2018-05-02T06:34:57.324Z,9.27
2018-05-02T06:37:25.028Z,9.60
2018-05-02T06:39:52.967Z,9.20
2018-05-02T06:42:21.691Z,9.20
2018-05-02T06:44:49.444Z,9.50
2018-05-02T06:47:17.327Z,8.87
2018-05-02T06:49:44.875Z,9.33
2018-05-02T06:52:12.921Z,10.10
2018-05-02T06:54:40.778Z,8.87
2018-05-02T06:57:08.690Z,9.67
2018-05-02T06:59:36.562Z,9.90
2018-05-02T07:02:04.180Z,8.43
2018-05-02T07:04:32.177Z,8.63
2018-05-02T07:06:59.757Z,9.73
2018-05-02T07:09:27.375Z,8.47
2018-05-02T07:11:55.065Z,9.10
2018-05-02T07:14:22.728Z,8.43
2018-05-02T07:16:50.286Z,9.00
2018-05-02T07:19:18.113Z,10.57
2018-05-02T07:21:45.751Z,9.03
2018-05-02T07:24:13.684Z,9.23
2018-05-02T07:26:41.239Z,9.37
2018-05-02T07:29:08.784Z,8.53
2018-05-02T07:31:36.367Z,7.47
2018-05-02T07:34:03.928Z,8.90
2018-05-02T07:36:31.502Z,8.47
2018-05-02T07:38:59.342Z,9.10
2018-05-02T07:41:26.965Z,8.77
2018-05-02T07:43:54.535Z,7.53
2018-05-02T07:46:22.818Z,6.53
2018-05-02T07:48:50.533Z,6.87
2018-05-02T07:51:18.103Z,7.90
2018-05-02T07:53:45.776Z,7.00
2018-05-02T07:56:13.589Z,7.00
2018-05-02T07:58:41.156Z,8.10
2018-05-02T08:01:08.746Z,7.17
2018-05-02T08:03:36.300Z,7.30
2018-05-02T08:06:03.909Z,7.67
2018-05-02T08:08:31.495Z,6.80
2018-05-02T08:10:59.082Z,6.63
2018-05-02T08:13:26.670Z,7.03
2018-05-02T08:15:54.466Z,7.93
2018-05-02T08:18:22.554Z,7.17
2018-05-02T08:20:50.355Z,7.00
2018-05-02T08:23:17.979Z,6.17
2018-05-02T08:25:45.627Z,7.43
2018-05-02T08:28:13.557Z,7.20
2018-05-02T08:30:41.107Z,5.63
2018-05-02T08:33:08.655Z,5.90
2018-05-02T08:35:36.471Z,6.70
2018-05-02T08:38:04.090Z,5.63
2018-05-02T08:40:32.032Z,5.47
2018-05-02T08:42:59.592Z,5.83
2018-05-02T08:45:27.394Z,5.80
2018-05-02T08:47:55.227Z,6.73
2018-05-02T08:50:22.887Z,5.27
2018-05-02T08:52:50.494Z,5.63
2018-05-02T08:55:18.126Z,5.70
2018-05-02T08:57:45.758Z,5.53
2018-05-02T09:00:13.969Z,4.87
2018-05-02T09:02:41.523Z,4.30
2018-05-02T09:05:09.079Z,4.90
2018-05-02T09:07:36.656Z,4.50
2018-05-02T09:10:04.584Z,4.60
2018-05-02T09:12:32.214Z,4.47
2018-05-02T09:14:59.766Z,4.63
2018-05-02T09:17:27.346Z,4.20
2018-05-02T09:19:54.925Z,4.30
2018-05-02T09:22:22.753Z,4.40
2018-05-02T09:24:50.582Z,4.30
2018-05-02T09:27:18.469Z,4.00
2018-05-02T09:29:46.096Z,3.30
2018-05-02T09:32:13.699Z,2.80
2018-05-02T09:34:41.295Z,3.30
2018-05-02T09:37:08.956Z,3.50
2018-05-02T09:39:36.577Z,3.07
2018-05-02T09:42:04.167Z,3.60
2018-05-02T09:44:31.952Z,2.80
2018-05-02T09:46:59.732Z,2.40
2018-05-02T09:49:27.660Z,3.67
2018-05-02T09:51:55.222Z,2.93
2018-05-02T09:54:22.808Z,2.93
2018-05-02T09:56:50.433Z,2.43
2018-05-02T09:59:18.013Z,2.17
2018-05-02T10:01:45.783Z,2.50
2018-05-02T10:04:13.405Z,2.23
2018-05-02T10:06:40.961Z,2.20
2018-05-02T10:09:08.561Z,2.70
2018-05-02T10:11:36.108Z,2.30
2018-05-02T10:14:03.669Z,2.30
2018-05-02T10:16:31.252Z,2.73
2018-05-02T10:18:59.041Z,2.20
2018-05-02T10:21:26.682Z,2.73
2018-05-02T10:23:54.236Z,2.20
2018-05-02T10:26:22.154Z,1.80
2018-05-02T10:28:49.769Z,2.20
2018-05-02T10:31:17.545Z,2.43
2018-05-02T10:33:45.522Z,2.17
2018-05-02T10:36:13.143Z,2.07
2018-05-02T10:38:41.009Z,1.87
2018-05-02T10:41:08.653Z,1.83
2018-05-02T10:43:36.218Z,2.30
2018-05-02T10:46:03.869Z,1.70
2018-05-02T10:48:31.423Z,2.30
2018-05-02T10:50:59.011Z,2.30
2018-05-02T10:53:26.613Z,1.87
2018-05-02T10:55:54.220Z,2.23
2018-05-02T10:58:21.837Z,1.73
2018-05-02T11:00:49.807Z,2.00
2018-05-02T11:03:17.486Z,2.00
2018-05-02T11:05:45.047Z,2.20
2018-05-02T11:08:12.601Z,1.93
2018-05-02T11:10:40.514Z,2.23
2018-05-02T11:13:08.311Z,2.40
2018-05-02T11:15:35.860Z,1.90
2018-05-02T11:18:03.444Z,1.60
2018-05-02T11:20:31.014Z,1.83
2018-05-02T11:22:58.697Z,2.57
2018-05-02T11:25:26.515Z,1.83
2018-05-02T11:27:54.113Z,2.40
2018-05-02T11:30:21.912Z,2.50
2018-05-02T11:32:49.597Z,1.90
2018-05-02T11:35:17.171Z,1.97
2018-05-02T11:37:44.820Z,1.90
2018-05-02T11:40:12.426Z,2.57
2018-05-02T11:42:39.966Z,2.03
2018-05-02T11:45:07.760Z,2.53
2018-05-02T11:47:35.339Z,2.20
2018-05-02T11:50:02.958Z,1.80
2018-05-02T11:52:30.591Z,1.90
2018-05-02T11:54:58.141Z,2.00
2018-05-02T11:57:25.827Z,2.40
2018-05-02T11:59:53.387Z,1.90
2018-05-02T12:02:20.943Z,1.90
2018-05-02T12:04:48.528Z,2.30
2018-05-02T12:07:16.325Z,2.37
2018-05-02T12:09:43.933Z,2.17
2018-05-02T12:12:11.499Z,2.60
2018-05-02T12:14:39.128Z,2.73
2018-05-02T12:17:06.787Z,2.43
2018-05-02T12:19:34.376Z,2.20
2018-05-02T12:22:02.184Z,2.50
2018-05-02T12:24:29.752Z,1.87
2018-05-02T12:26:57.326Z,1.87
2018-05-02T12:29:24.973Z,1.73
2018-05-02T12:31:52.868Z,1.90
2018-05-02T12:34:20.448Z,2.20
2018-05-02T12:36:47.997Z,2.00
2018-05-02T12:39:15.852Z,2.43
2018-05-02T12:41:43.454Z,1.87
2018-05-02T12:44:11.007Z,2.30
2018-05-02T12:46:38.646Z,1.90
2018-05-02T12:49:06.166Z,1.93
2018-05-02T12:51:33.711Z,2.57
2018-05-02T12:54:01.327Z,2.10
2018-05-02T12:56:28.877Z,2.27
2018-05-02T12:58:56.457Z,1.83
2018-05-02T13:01:24.352Z,2.87
2018-05-02T13:03:51.942Z,2.30
2018-05-02T13:06:19.882Z,1.63
2018-05-02T13:08:47.430Z,2.03
2018-05-02T13:11:14.974Z,2.20
2018-05-02T13:13:42.650Z,2.13
2018-05-02T13:16:10.199Z,2.20
2018-05-02T13:18:37.994Z,1.90
2018-05-02T13:21:05.635Z,2.10
2018-05-02T13:23:33.151Z,2.30
2018-05-02T13:26:00.872Z,1.70
2018-05-02T13:28:28.652Z,2.37
2018-05-02T13:30:56.341Z,2.27
2018-05-02T13:33:23.893Z,2.07
2018-05-02T13:35:51.677Z,2.50
2018-05-02T13:38:19.251Z,2.40
2018-05-02T13:40:46.803Z,1.57
2018-05-02T13:43:14.405Z,1.97
2018-05-02T13:45:41.955Z,2.10
2018-05-02T13:48:09.742Z,1.97
2018-05-02T13:50:37.391Z,2.13
2018-05-02T13:53:05.264Z,2.57
2018-05-02T13:55:32.838Z,2.20
2018-05-02T13:58:00.456Z,2.10
2018-05-02T14:00:28.003Z,2.73
2018-05-02T14:02:55.547Z,1.90
2018-05-02T14:05:23.357Z,2.50
2018-05-02T14:07:51.105Z,2.10
2018-05-02T14:10:18.713Z,1.90
2018-05-02T14:12:46.330Z,2.07
2018-05-02T14:15:13.977Z,2.63
2018-05-02T14:17:41.595Z,2.87
2018-05-02T14:20:09.174Z,2.27
2018-05-02T14:22:36.729Z,1.87
2018-05-02T14:25:04.334Z,2.90
2018-05-02T14:27:31.931Z,2.50
2018-05-02T14:29:59.722Z,2.00
2018-05-02T14:32:27.433Z,2.90
2018-05-02T14:34:55.059Z,1.80
2018-05-02T14:37:22.612Z,2.40
2018-05-02T14:39:50.178Z,3.20
2018-05-02T14:42:18.198Z,2.50
2018-05-02T14:44:45.817Z,2.50
2018-05-02T14:47:13.365Z,2.23
2018-05-02T14:49:41.016Z,2.63
2018-05-02T14:52:08.562Z,2.50
2018-05-02T14:54:36.193Z,2.50
2018-05-02T14:57:03.967Z,3.60
2018-05-02T14:59:31.610Z,2.07
2018-05-02T15:01:59.172Z,2.60
2018-05-02T15:04:26.953Z,2.30
2018-05-02T15:06:54.491Z,2.43
2018-05-02T15:09:22.132Z,2.07
2018-05-02T15:11:50.511Z,2.57
2018-05-02T15:14:18.055Z,3.07
2018-05-02T15:16:45.597Z,2.40
2018-05-02T15:19:13.242Z,2.77
2018-05-02T15:21:40.809Z,1.80
2018-05-02T15:24:08.435Z,2.77
2018-05-02T15:26:36.068Z,2.33
2018-05-02T15:29:03.631Z,2.47
2018-05-02T15:31:31.185Z,2.10
2018-05-02T15:33:58.764Z,3.03
2018-05-02T15:36:26.315Z,2.23
2018-05-02T15:38:53.963Z,2.80
2018-05-02T15:41:21.590Z,2.07
2018-05-02T15:43:49.669Z,2.37
2018-05-02T15:46:17.236Z,2.53
2018-05-02T15:48:44.812Z,2.13
2018-05-02T15:51:12.402Z,2.67
2018-05-02T15:53:39.980Z,3.17
2018-05-02T15:56:07.626Z,3.00
2018-05-02T15:58:35.271Z,2.87
2018-05-02T16:01:02.850Z,2.83
2018-05-02T16:03:30.471Z,2.80
2018-05-02T16:05:58.051Z,3.40
2018-05-02T16:08:25.634Z,3.43
2018-05-02T16:10:53.430Z,2.73
2018-05-02T16:13:21.034Z,2.83
2018-05-02T16:15:48.591Z,3.17
2018-05-02T16:18:16.156Z,3.00
2018-05-02T16:20:44.170Z,4.07
2018-05-02T16:23:11.832Z,2.97
2018-05-02T16:25:39.462Z,3.10
2018-05-02T16:28:07.066Z,3.03
2018-05-02T16:30:34.627Z,3.30
2018-05-02T16:33:02.435Z,3.70
2018-05-02T16:35:30.131Z,3.60
2018-05-02T16:37:57.692Z,3.00
2018-05-02T16:40:25.235Z,2.70
2018-05-02T16:42:52.841Z,4.17
2018-05-02T16:45:20.389Z,2.97
2018-05-02T16:47:48.207Z,3.67
2018-05-02T16:50:16.751Z,3.40
2018-05-02T16:52:44.367Z,2.80
2018-05-02T16:55:11.929Z,2.90
2018-05-02T16:57:39.611Z,2.70
2018-05-02T17:00:07.169Z,3.03
2018-05-02T17:02:34.721Z,3.27
2018-05-02T17:05:02.315Z,2.83
2018-05-02T17:07:29.937Z,3.10
2018-05-02T17:09:57.755Z,2.77
2018-05-02T17:12:25.301Z,2.73
2018-05-02T17:14:52.979Z,2.87
2018-05-02T17:17:20.538Z,3.47
2018-05-02T17:19:48.091Z,2.80
2018-05-02T17:22:15.697Z,2.37
2018-05-02T17:24:43.264Z,2.50
2018-05-02T17:27:10.948Z,2.80
2018-05-02T17:29:38.504Z,2.93
2018-05-02T17:32:06.070Z,2.70
2018-05-02T17:34:33.840Z,2.93
2018-05-02T17:37:01.814Z,3.37
2018-05-02T17:39:29.371Z,3.43
2018-05-02T17:41:57.052Z,3.40
2018-05-02T17:44:24.550Z,3.70
2018-05-02T17:46:52.098Z,2.90
2018-05-02T17:49:20.121Z,3.50
2018-05-02T17:51:47.668Z,3.57
2018-05-02T17:54:15.222Z,4.30
2018-05-02T17:56:42.802Z,3.40
2018-05-02T17:59:10.388Z,4.43
2018-05-02T18:01:37.972Z,3.60
2018-05-02T18:04:05.584Z,2.97
2018-05-02T18:06:33.167Z,3.23
2018-05-02T18:09:00.715Z,3.70
2018-05-02T18:11:28.328Z,3.70
2018-05-02T18:14:01.905Z,3.13
2018-05-02T18:16:29.588Z,3.40
2018-05-02T18:18:57.147Z,2.90
2018-05-02T18:21:24.748Z,3.73
2018-05-02T18:23:52.329Z,3.33
2018-05-02T18:26:19.946Z,2.60
2018-05-02T18:28:47.521Z,3.07
2018-05-02T18:31:15.307Z,2.73
2018-05-02T18:33:42.915Z,3.60
2018-05-02T18:36:10.505Z,3.90
2018-05-02T18:38:38.054Z,2.93
2018-05-02T18:41:05.637Z,3.03
2018-05-02T18:43:33.191Z,3.30
2018-05-02T18:46:00.842Z,3.13
2018-05-02T18:48:28.399Z,3.23
2018-05-02T18:50:56.244Z,4.03
2018-05-02T18:53:23.809Z,3.53
2018-05-02T18:55:51.399Z,2.90
2018-05-02T18:58:19.230Z,3.00
2018-05-02T19:00:46.782Z,3.30
2018-05-02T19:03:14.331Z,3.40
2018-05-02T19:05:42.004Z,3.50
2018-05-02T19:08:09.546Z,3.57
2018-05-02T19:10:37.191Z,3.60
2018-05-02T19:13:04.874Z,3.67
2018-05-02T19:15:32.462Z,3.50
2018-05-02T19:18:05.673Z,4.57
2018-05-02T19:20:36.126Z,4.40
2018-05-02T19:23:03.711Z,4.33
2018-05-02T19:25:36.840Z,4.80
2018-05-02T19:28:04.771Z,5.77
2018-05-02T19:30:32.319Z,4.10
2018-05-02T19:33:05.411Z,4.30
2018-05-02T19:35:33.091Z,3.77
2018-05-02T19:38:00.623Z,4.80
2018-05-02T19:40:33.669Z,4.37
2018-05-02T19:43:06.796Z,4.97
2018-05-02T19:45:34.770Z,5.60
2018-05-02T19:48:02.311Z,5.53
2018-05-02T19:50:29.935Z,4.70
2018-05-02T19:52:57.844Z,4.63
2018-05-02T19:55:25.388Z,6.40
2018-05-02T19:57:52.932Z,5.07
2018-05-02T20:00:25.975Z,5.20
2018-05-02T20:02:59.236Z,5.20
2018-05-02T20:05:26.815Z,5.20
2018-05-02T20:07:54.607Z,4.80
2018-05-02T20:10:28.413Z,5.20
2018-05-02T20:13:02.111Z,5.40
2018-05-02T20:15:29.814Z,5.90
2018-05-02T20:17:57.590Z,6.27
2018-05-02T20:20:25.156Z,6.60
2018-05-02T20:22:52.835Z,5.83
2018-05-02T20:25:20.442Z,6.13
2018-05-02T20:27:48.090Z,5.67
2018-05-02T20:30:15.671Z,7.30
2018-05-02T20:32:43.214Z,5.90
2018-05-02T20:35:10.787Z,5.37
2018-05-02T20:37:38.335Z,6.00
2018-05-02T20:40:06.319Z,6.27
2018-05-02T20:42:33.886Z,5.53
2018-05-02T20:45:01.431Z,5.30
2018-05-02T20:47:29.035Z,6.80
2018-05-02T20:49:56.585Z,5.40
2018-05-02T20:52:24.575Z,6.40
2018-05-02T20:54:52.439Z,6.90
2018-05-02T20:57:19.958Z,6.40
2018-05-02T20:59:47.552Z,6.73
2018-05-02T21:02:15.111Z,6.47
2018-05-02T21:04:42.962Z,7.13
2018-05-02T21:07:10.540Z,6.43
2018-05-02T21:09:38.651Z,7.07
2018-05-02T21:12:06.216Z,7.10
2018-05-02T21:14:33.876Z,6.50
2018-05-02T21:17:01.817Z,7.17
2018-05-02T21:19:29.365Z,7.70
2018-05-02T21:21:56.906Z,7.23
2018-05-02T21:24:24.900Z,6.30
2018-05-02T21:26:52.467Z,6.10
2018-05-02T21:29:20.012Z,4.60
2018-05-02T21:31:47.625Z,4.77
2018-05-02T21:34:15.410Z,4.07
2018-05-02T21:36:43.039Z,4.13
2018-05-02T21:39:10.986Z,4.20
2018-05-02T21:41:38.531Z,4.60
2018-05-02T21:44:06.093Z,4.57
2018-05-02T21:46:33.661Z,4.13
2018-05-02T21:49:01.287Z,3.60
2018-05-02T21:51:28.908Z,3.47
2018-05-02T21:53:56.479Z,3.33
2018-05-02T21:56:24.080Z,3.60
2018-05-02T21:58:51.735Z,3.60
2018-05-02T22:01:19.709Z,3.10
2018-05-02T22:03:47.418Z,4.27
2018-05-02T22:06:14.999Z,3.87
2018-05-02T22:08:42.873Z,4.30
2018-05-02T22:11:10.688Z,4.17
2018-05-02T22:13:38.756Z,3.70
2018-05-02T22:16:06.925Z,3.73
2018-05-02T22:18:34.966Z,3.53
2018-05-02T22:21:02.960Z,3.37
2018-05-02T22:23:30.830Z,4.07
2018-05-02T22:25:58.999Z,3.97
2018-05-02T22:28:26.587Z,4.00
2018-05-02T22:30:54.374Z,4.10
2018-05-02T22:33:22.332Z,3.53
2018-05-02T22:35:50.140Z,3.13
2018-05-02T22:38:17.842Z,3.10
2018-05-02T22:40:45.630Z,3.23
2018-05-02T22:43:13.290Z,2.80
2018-05-02T22:45:40.886Z,2.73
2018-05-02T22:48:08.440Z,2.90
2018-05-02T22:50:35.997Z,3.10
2018-05-02T22:53:03.584Z,3.23
2018-05-02T22:55:31.210Z,3.03
2018-05-02T22:57:59.250Z,3.83
2018-05-02T23:00:26.808Z,3.73
2018-05-02T23:02:54.355Z,3.43
2018-05-02T23:05:22.012Z,4.30
2018-05-02T23:07:49.873Z,3.80
2018-05-02T23:10:17.427Z,4.50
2018-05-02T23:12:45.252Z,3.83
2018-05-02T23:15:13.847Z,4.10
2018-05-02T23:17:41.393Z,4.20
2018-05-02T23:20:09.046Z,4.80
2018-05-02T23:22:36.743Z,5.00
2018-05-02T23:25:04.309Z,4.70
2018-05-02T23:27:31.894Z,5.20
2018-05-02T23:29:59.462Z,6.33
2018-05-02T23:32:27.093Z,5.50
2018-05-02T23:34:54.692Z,6.10
2018-05-02T23:37:22.244Z,5.40
2018-05-02T23:39:49.800Z,7.30
2018-05-02T23:42:17.399Z,6.47
2018-05-02T23:44:44.966Z,5.97
2018-05-02T23:47:12.732Z,6.40
2018-05-02T23:49:40.349Z,6.77
2018-05-02T23:52:07.908Z,7.73
2018-05-02T23:54:35.509Z,7.30
2018-05-02T23:57:03.091Z,8.03
2018-05-02T23:59:30.778Z,8.23
